sensor_id;sensor_type;location;lat;lon;timestamp;pressure;altitude;pressure_sealevel;temperature;humidity
16255;BME280;8235;52.198;9.904;2023-03-15T00:02:21;100134.66;;;1.87;72.54
16255;BME280;8235;52.198;9.904;2023-03-15T00:04:47;100130.31;;;1.86;72.74
16255;BME280;8235;52.198;9.904;2023-03-15T00:07:13;100138.19;;;1.86;72.23
16255;BME280;8235;52.198;9.904;2023-03-15T00:09:40;100136.38;;;1.88;72.39
16255;BME280;8235;52.198;9.904;2023-03-15T00:12:07;100139.91;;;1.87;72.12
16255;BME280;8235;52.198;9.904;2023-03-15T00:14:35;100143.41;;;1.88;72.83
16255;BME280;8235;52.198;9.904;2023-03-15T00:17:01;100151.44;;;1.83;72.97
16255;BME280;8235;52.198;9.904;2023-03-15T00:19:28;100147.03;;;1.84;72.67
16255;BME280;8235;52.198;9.904;2023-03-15T00:21:55;100155.84;;;1.83;72.74
16255;BME280;8235;52.198;9.904;2023-03-15T00:24:21;100162.78;;;1.84;72.87
16255;BME280;8235;52.198;9.904;2023-03-15T00:26:47;100163.75;;;1.81;72.46
16255;BME280;8235;52.198;9.904;2023-03-15T00:29:14;100158.56;;;1.80;73.10
16255;BME280;8235;52.198;9.904;2023-03-15T00:31:42;100170.84;;;1.79;72.69
16255;BME280;8235;52.198;9.904;2023-03-15T00:34:08;100170.84;;;1.79;72.76
16255;BME280;8235;52.198;9.904;2023-03-15T00:36:38;100176.94;;;1.80;73.43
16255;BME280;8235;52.198;9.904;2023-03-15T00:39:08;100175.31;;;1.77;72.87
16255;BME280;8235;52.198;9.904;2023-03-15T00:41:34;100180.56;;;1.77;73.02
16255;BME280;8235;52.198;9.904;2023-03-15T00:44:01;100175.25;;;1.79;73.08
16255;BME280;8235;52.198;9.904;2023-03-15T00:46:28;100182.28;;;1.78;73.18
16255;BME280;8235;52.198;9.904;2023-03-15T00:48:56;100192.69;;;1.80;73.01
16255;BME280;8235;52.198;9.904;2023-03-15T00:51:23;100191.72;;;1.82;72.69
16255;BME280;8235;52.198;9.904;2023-03-15T00:53:51;100193.53;;;1.80;72.46
16255;BME280;8235;52.198;9.904;2023-03-15T00:56:19;100197.13;;;1.79;73.00
16255;BME280;8235;52.198;9.904;2023-03-15T00:58:46;100197.13;;;1.79;72.82
16255;BME280;8235;52.198;9.904;2023-03-15T01:01:15;100190.91;;;1.80;72.81
16255;BME280;8235;52.198;9.904;2023-03-15T01:03:42;100197.94;;;1.80;72.88
16255;BME280;8235;52.198;9.904;2023-03-15T01:06:12;100202.28;;;1.81;72.40
16255;BME280;8235;52.198;9.904;2023-03-15T01:08:40;100200.50;;;1.81;72.58
16255;BME280;8235;52.198;9.904;2023-03-15T01:11:10;100197.13;;;1.79;72.44
16255;BME280;8235;52.198;9.904;2023-03-15T01:13:37;100191.88;;;1.79;72.48
16255;BME280;8235;52.198;9.904;2023-03-15T01:16:05;100193.50;;;1.82;72.27
16255;BME280;8235;52.198;9.904;2023-03-15T01:18:32;100195.31;;;1.80;72.91
16255;BME280;8235;52.198;9.904;2023-03-15T01:20:58;100194.41;;;1.81;72.58
16255;BME280;8235;52.198;9.904;2023-03-15T01:23:26;100189.97;;;1.83;72.79
16255;BME280;8235;52.198;9.904;2023-03-15T01:25:54;100197.84;;;1.83;72.74
16255;BME280;8235;52.198;9.904;2023-03-15T01:28:20;100197.78;;;1.84;72.43
16255;BME280;8235;52.198;9.904;2023-03-15T01:30:50;100203.13;;;1.81;72.18
16255;BME280;8235;52.198;9.904;2023-03-15T01:33:16;100198.75;;;1.82;72.25
16255;BME280;8235;52.198;9.904;2023-03-15T01:35:43;100204.81;;;1.84;71.97
16255;BME280;8235;52.198;9.904;2023-03-15T01:38:09;100190.81;;;1.83;72.20
16255;BME280;8235;52.198;9.904;2023-03-15T01:40:41;100194.16;;;1.88;71.84
16255;BME280;8235;52.198;9.904;2023-03-15T01:43:14;100204.72;;;1.87;72.11
16255;BME280;8235;52.198;9.904;2023-03-15T01:45:53;100186.28;;;1.88;71.49
16255;BME280;8235;52.198;9.904;2023-03-15T01:48:24;100204.66;;;1.88;71.82
16255;BME280;8235;52.198;9.904;2023-03-15T01:50:53;100205.47;;;1.90;72.18
16255;BME280;8235;52.198;9.904;2023-03-15T01:53:21;100208.13;;;1.89;71.21
16255;BME280;8235;52.198;9.904;2023-03-15T01:55:52;100210.72;;;1.90;71.30
16255;BME280;8235;52.198;9.904;2023-03-15T01:58:20;100206.28;;;1.92;71.57
16255;BME280;8235;52.198;9.904;2023-03-15T02:00:50;100201.94;;;1.91;71.32
16255;BME280;8235;52.198;9.904;2023-03-15T02:03:20;100201.03;;;1.92;71.81
16255;BME280;8235;52.198;9.904;2023-03-15T02:05:51;100204.50;;;1.93;71.81
16255;BME280;8235;52.198;9.904;2023-03-15T02:08:21;100208.91;;;1.92;71.68
16255;BME280;8235;52.198;9.904;2023-03-15T02:10:53;100206.22;;;1.94;71.37
16255;BME280;8235;52.198;9.904;2023-03-15T02:13:23;100212.31;;;1.94;70.96
16255;BME280;8235;52.198;9.904;2023-03-15T02:15:51;100202.53;;;1.98;70.98
16255;BME280;8235;52.198;9.904;2023-03-15T02:18:18;100196.28;;;2.02;70.88
16255;BME280;8235;52.198;9.904;2023-03-15T02:20:50;100207.59;;;2.04;70.80
16255;BME280;8235;52.198;9.904;2023-03-15T02:23:21;100209.25;;;2.06;70.65
16255;BME280;8235;52.198;9.904;2023-03-15T02:25:55;100211.03;;;2.06;70.40
16255;BME280;8235;52.198;9.904;2023-03-15T02:28:24;100209.09;;;2.11;70.18
16255;BME280;8235;52.198;9.904;2023-03-15T02:30:51;100201.16;;;2.13;69.70
16255;BME280;8235;52.198;9.904;2023-03-15T02:33:20;100216.03;;;2.14;69.40
16255;BME280;8235;52.198;9.904;2023-03-15T02:35:48;100214.16;;;2.16;69.84
16255;BME280;8235;52.198;9.904;2023-03-15T02:38:15;100224.56;;;2.19;69.67
16255;BME280;8235;52.198;9.904;2023-03-15T02:40:43;100222.75;;;2.21;69.45
16255;BME280;8235;52.198;9.904;2023-03-15T02:43:13;100232.31;;;2.23;68.96
16255;BME280;8235;52.198;9.904;2023-03-15T02:45:43;100234.88;;;2.25;69.49
16255;BME280;8235;52.198;9.904;2023-03-15T02:48:11;100241.84;;;2.26;69.10
16255;BME280;8235;52.198;9.904;2023-03-15T02:50:38;100247.09;;;2.26;69.57
16255;BME280;8235;52.198;9.904;2023-03-15T02:53:05;100241.78;;;2.27;69.90
16255;BME280;8235;52.198;9.904;2023-03-15T02:55:32;100242.66;;;2.28;69.97
16255;BME280;8235;52.198;9.904;2023-03-15T02:57:59;100252.25;;;2.29;69.48
16255;BME280;8235;52.198;9.904;2023-03-15T03:00:26;100240.94;;;2.27;70.83
16255;BME280;8235;52.198;9.904;2023-03-15T03:02:54;100244.41;;;2.27;70.79
16255;BME280;8235;52.198;9.904;2023-03-15T03:05:21;100256.59;;;2.30;70.49
16255;BME280;8235;52.198;9.904;2023-03-15T03:07:47;100260.88;;;2.32;70.49
16255;BME280;8235;52.198;9.904;2023-03-15T03:10:17;100268.69;;;2.34;71.14
16255;BME280;8235;52.198;9.904;2023-03-15T03:12:43;100260.81;;;2.34;71.03
16255;BME280;8235;52.198;9.904;2023-03-15T03:15:11;100267.78;;;2.35;71.51
16255;BME280;8235;52.198;9.904;2023-03-15T03:17:37;100276.53;;;2.35;72.10
16255;BME280;8235;52.198;9.904;2023-03-15T03:20:07;100272.13;;;2.36;72.06
16255;BME280;8235;52.198;9.904;2023-03-15T03:22:34;100282.63;;;2.36;72.61
16255;BME280;8235;52.198;9.904;2023-03-15T03:25:01;100281.81;;;2.34;73.17
16255;BME280;8235;52.198;9.904;2023-03-15T03:27:28;100285.41;;;2.33;73.00
16255;BME280;8235;52.198;9.904;2023-03-15T03:29:54;100292.41;;;2.32;73.29
16255;BME280;8235;52.198;9.904;2023-03-15T03:32:21;100292.56;;;2.28;73.97
16255;BME280;8235;52.198;9.904;2023-03-15T03:34:47;100298.63;;;2.30;74.74
16255;BME280;8235;52.198;9.904;2023-03-15T03:37:15;100312.63;;;2.30;74.68
16255;BME280;8235;52.198;9.904;2023-03-15T03:39:42;100308.34;;;2.28;74.96
16255;BME280;8235;52.198;9.904;2023-03-15T03:42:08;100321.47;;;2.28;75.68
16255;BME280;8235;52.198;9.904;2023-03-15T03:44:35;100323.31;;;2.26;76.40
16255;BME280;8235;52.198;9.904;2023-03-15T03:47:01;100319.81;;;2.25;76.52
16255;BME280;8235;52.198;9.904;2023-03-15T03:49:28;100324.22;;;2.25;76.72
16255;BME280;8235;52.198;9.904;2023-03-15T03:51:55;100332.13;;;2.23;76.55
16255;BME280;8235;52.198;9.904;2023-03-15T03:54:22;100332.19;;;2.22;77.10
16255;BME280;8235;52.198;9.904;2023-03-15T03:56:49;100336.63;;;2.20;77.92
16255;BME280;8235;52.198;9.904;2023-03-15T03:59:16;100340.13;;;2.20;77.96
16255;BME280;8235;52.198;9.904;2023-03-15T04:01:42;100341.09;;;2.18;78.74
16255;BME280;8235;52.198;9.904;2023-03-15T04:04:09;100343.75;;;2.16;78.45
16255;BME280;8235;52.198;9.904;2023-03-15T04:06:38;100343.84;;;2.15;79.16
16255;BME280;8235;52.198;9.904;2023-03-15T04:09:10;100353.53;;;2.13;79.17
16255;BME280;8235;52.198;9.904;2023-03-15T04:11:38;100348.47;;;2.06;80.19
16255;BME280;8235;52.198;9.904;2023-03-15T04:14:06;100350.34;;;2.03;80.78
16255;BME280;8235;52.198;9.904;2023-03-15T04:16:33;100354.78;;;2.01;80.60
16255;BME280;8235;52.198;9.904;2023-03-15T04:18:59;100359.19;;;2.00;80.79
16255;BME280;8235;52.198;9.904;2023-03-15T04:21:26;100360.22;;;1.96;80.76
16255;BME280;8235;52.198;9.904;2023-03-15T04:23:56;100363.69;;;1.97;80.36
16255;BME280;8235;52.198;9.904;2023-03-15T04:26:22;100363.78;;;1.94;81.27
16255;BME280;8235;52.198;9.904;2023-03-15T04:28:52;100370.91;;;1.90;81.25
16255;BME280;8235;52.198;9.904;2023-03-15T04:31:18;100368.38;;;1.87;81.09
16255;BME280;8235;52.198;9.904;2023-03-15T04:33:45;100380.69;;;1.85;81.42
16255;BME280;8235;52.198;9.904;2023-03-15T04:36:12;100399.97;;;1.84;82.47
16255;BME280;8235;52.198;9.904;2023-03-15T04:38:42;100395.72;;;1.80;82.38
16255;BME280;8235;52.198;9.904;2023-03-15T04:41:11;100400.91;;;1.82;82.85
16255;BME280;8235;52.198;9.904;2023-03-15T04:43:37;100399.16;;;1.82;82.65
16255;BME280;8235;52.198;9.904;2023-03-15T04:46:06;100402.69;;;1.81;83.05
16255;BME280;8235;52.198;9.904;2023-03-15T04:48:32;100407.09;;;1.81;82.97
16255;BME280;8235;52.198;9.904;2023-03-15T04:50:59;100407.03;;;1.82;83.37
16255;BME280;8235;52.198;9.904;2023-03-15T04:53:25;100400.09;;;1.80;85.04
16255;BME280;8235;52.198;9.904;2023-03-15T04:55:52;100412.31;;;1.81;84.51
16255;BME280;8235;52.198;9.904;2023-03-15T04:58:19;100421.06;;;1.81;84.64
16255;BME280;8235;52.198;9.904;2023-03-15T05:00:46;100407.91;;;1.83;84.86
16255;BME280;8235;52.198;9.904;2023-03-15T05:03:13;100409.66;;;1.82;84.85
16255;BME280;8235;52.198;9.904;2023-03-15T05:05:40;100419.25;;;1.83;85.14
16255;BME280;8235;52.198;9.904;2023-03-15T05:08:06;100420.13;;;1.84;85.56
16255;BME280;8235;52.198;9.904;2023-03-15T05:10:33;100434.91;;;1.86;85.46
16255;BME280;8235;52.198;9.904;2023-03-15T05:12:59;100432.25;;;1.88;85.34
16255;BME280;8235;52.198;9.904;2023-03-15T05:15:26;100436.56;;;1.90;85.17
16255;BME280;8235;52.198;9.904;2023-03-15T05:17:52;100431.31;;;1.90;84.90
16255;BME280;8235;52.198;9.904;2023-03-15T05:20:21;100439.19;;;1.90;85.50
16255;BME280;8235;52.198;9.904;2023-03-15T05:22:49;100447.06;;;1.90;85.52
16255;BME280;8235;52.198;9.904;2023-03-15T05:25:17;100452.31;;;1.90;86.04
16255;BME280;8235;52.198;9.904;2023-03-15T05:27:44;100448.78;;;1.91;85.80
16255;BME280;8235;52.198;9.904;2023-03-15T05:30:12;100459.19;;;1.94;86.24
16255;BME280;8235;52.198;9.904;2023-03-15T05:32:39;100456.63;;;1.93;85.76
16255;BME280;8235;52.198;9.904;2023-03-15T05:35:09;100460.09;;;1.93;86.22
16255;BME280;8235;52.198;9.904;2023-03-15T05:37:38;100461.88;;;1.93;86.69
16255;BME280;8235;52.198;9.904;2023-03-15T05:40:06;100468.88;;;1.92;86.89
16255;BME280;8235;52.198;9.904;2023-03-15T05:42:33;100477.63;;;1.93;87.07
16255;BME280;8235;52.198;9.904;2023-03-15T05:44:59;100480.25;;;1.93;86.72
16255;BME280;8235;52.198;9.904;2023-03-15T05:47:26;100485.53;;;1.91;86.89
16255;BME280;8235;52.198;9.904;2023-03-15T05:49:52;100489.00;;;1.93;87.62
16255;BME280;8235;52.198;9.904;2023-03-15T05:52:19;100500.34;;;1.94;88.02
16255;BME280;8235;52.198;9.904;2023-03-15T05:54:46;100494.25;;;1.93;87.85
16255;BME280;8235;52.198;9.904;2023-03-15T05:57:13;100498.59;;;1.94;87.99
16255;BME280;8235;52.198;9.904;2023-03-15T05:59:39;100504.69;;;1.95;87.79
16255;BME280;8235;52.198;9.904;2023-03-15T06:02:06;100502.94;;;1.95;88.28
16255;BME280;8235;52.198;9.904;2023-03-15T06:04:32;100513.31;;;1.98;88.11
16255;BME280;8235;52.198;9.904;2023-03-15T06:07:00;100508.94;;;1.99;88.41
16255;BME280;8235;52.198;9.904;2023-03-15T06:09:26;100516.84;;;1.97;88.45
16255;BME280;8235;52.198;9.904;2023-03-15T06:11:54;100519.47;;;1.97;88.49
16255;BME280;8235;52.198;9.904;2023-03-15T06:14:23;100522.06;;;1.99;88.58
16255;BME280;8235;52.198;9.904;2023-03-15T06:16:49;100532.56;;;1.99;88.43
16255;BME280;8235;52.198;9.904;2023-03-15T06:19:16;100527.34;;;1.97;88.97
16255;BME280;8235;52.198;9.904;2023-03-15T06:21:42;100536.09;;;1.98;88.93
16255;BME280;8235;52.198;9.904;2023-03-15T06:24:09;100547.41;;;2.00;88.37
16255;BME280;8235;52.198;9.904;2023-03-15T06:26:36;100549.09;;;2.02;88.96
16255;BME280;8235;52.198;9.904;2023-03-15T06:29:04;100557.81;;;2.04;88.28
16255;BME280;8235;52.198;9.904;2023-03-15T06:31:30;100564.72;;;2.07;88.82
16255;BME280;8235;52.198;9.904;2023-03-15T06:33:57;100569.94;;;2.08;88.90
16255;BME280;8235;52.198;9.904;2023-03-15T06:36:23;100577.75;;;2.12;88.55
16255;BME280;8235;52.198;9.904;2023-03-15T06:38:50;100576.84;;;2.13;89.08
16255;BME280;8235;52.198;9.904;2023-03-15T06:41:18;100568.91;;;2.14;88.33
16255;BME280;8235;52.198;9.904;2023-03-15T06:43:45;100574.94;;;2.16;89.18
16255;BME280;8235;52.198;9.904;2023-03-15T06:46:13;100581.03;;;2.18;88.70
16255;BME280;8235;52.198;9.904;2023-03-15T06:48:40;100584.50;;;2.19;88.60
16255;BME280;8235;52.198;9.904;2023-03-15T06:51:06;100588.88;;;2.20;89.16
16255;BME280;8235;52.198;9.904;2023-03-15T06:53:33;100595.78;;;2.22;88.52
16255;BME280;8235;52.198;9.904;2023-03-15T06:56:00;100601.00;;;2.24;88.96
16255;BME280;8235;52.198;9.904;2023-03-15T06:58:26;100607.09;;;2.26;89.26
16255;BME280;8235;52.198;9.904;2023-03-15T07:00:53;100615.78;;;2.28;88.74
16255;BME280;8235;52.198;9.904;2023-03-15T07:03:20;100610.47;;;2.29;88.92
16255;BME280;8235;52.198;9.904;2023-03-15T07:05:48;100617.41;;;2.32;89.17
16255;BME280;8235;52.198;9.904;2023-03-15T07:08:17;100613.78;;;2.36;88.79
16255;BME280;8235;52.198;9.904;2023-03-15T07:10:44;100617.22;;;2.38;88.36
16255;BME280;8235;52.198;9.904;2023-03-15T07:13:12;100633.81;;;2.40;88.21
16255;BME280;8235;52.198;9.904;2023-03-15T07:15:39;100633.66;;;2.44;88.81
16255;BME280;8235;52.198;9.904;2023-03-15T07:18:06;100639.75;;;2.47;88.31
16255;BME280;8235;52.198;9.904;2023-03-15T07:20:34;100637.88;;;2.50;88.59
16255;BME280;8235;52.198;9.904;2023-03-15T07:23:01;100651.72;;;2.55;89.01
16255;BME280;8235;52.198;9.904;2023-03-15T07:25:27;100646.34;;;2.60;88.61
16255;BME280;8235;52.198;9.904;2023-03-15T07:27:53;100647.06;;;2.65;88.62
16255;BME280;8235;52.198;9.904;2023-03-15T07:30:20;100650.34;;;2.71;88.87
16255;BME280;8235;52.198;9.904;2023-03-15T07:32:47;100651.06;;;2.76;89.22
16255;BME280;8235;52.198;9.904;2023-03-15T07:35:13;100659.66;;;2.83;88.28
16255;BME280;8235;52.198;9.904;2023-03-15T07:37:42;100669.94;;;2.89;88.53
16255;BME280;8235;52.198;9.904;2023-03-15T07:40:10;100666.38;;;2.92;88.29
16255;BME280;8235;52.198;9.904;2023-03-15T07:42:38;100671.53;;;2.95;88.11
16255;BME280;8235;52.198;9.904;2023-03-15T07:45:06;100675.84;;;2.97;88.47
16255;BME280;8235;52.198;9.904;2023-03-15T07:47:33;100673.16;;;2.99;87.87
16255;BME280;8235;52.198;9.904;2023-03-15T07:50:00;100685.41;;;3.00;87.38
16255;BME280;8235;52.198;9.904;2023-03-15T07:52:28;100689.78;;;3.01;87.16
16255;BME280;8235;52.198;9.904;2023-03-15T07:54:56;100696.75;;;3.02;87.05
16255;BME280;8235;52.198;9.904;2023-03-15T07:57:22;100688.88;;;3.02;86.58
16255;BME280;8235;52.198;9.904;2023-03-15T07:59:49;100694.78;;;3.08;86.92
16255;BME280;8235;52.198;9.904;2023-03-15T08:02:16;100687.50;;;3.17;86.28
16255;BME280;8235;52.198;9.904;2023-03-15T08:04:43;100690.59;;;3.29;87.09
16255;BME280;8235;52.198;9.904;2023-03-15T08:07:10;100694.56;;;3.41;86.23
16255;BME280;8235;52.198;9.904;2023-03-15T08:09:36;100688.94;;;3.53;86.26
16255;BME280;8235;52.198;9.904;2023-03-15T08:12:05;100694.53;;;3.69;86.27
16255;BME280;8235;52.198;9.904;2023-03-15T08:14:32;100702.91;;;3.80;85.22
16255;BME280;8235;52.198;9.904;2023-03-15T08:16:58;100704.13;;;3.95;84.83
16255;BME280;8235;52.198;9.904;2023-03-15T08:19:25;100709.81;;;4.09;84.07
16255;BME280;8235;52.198;9.904;2023-03-15T08:21:51;100712.16;;;4.16;83.40
16255;BME280;8235;52.198;9.904;2023-03-15T08:24:18;100712.81;;;4.23;82.70
16255;BME280;8235;52.198;9.904;2023-03-15T08:26:45;100713.34;;;4.31;82.17
16255;BME280;8235;52.198;9.904;2023-03-15T08:29:13;100725.69;;;4.31;80.56
16255;BME280;8235;52.198;9.904;2023-03-15T08:31:40;100732.72;;;4.30;80.10
16255;BME280;8235;52.198;9.904;2023-03-15T08:34:06;100738.09;;;4.29;79.74
16255;BME280;8235;52.198;9.904;2023-03-15T08:36:33;100746.06;;;4.27;79.35
16255;BME280;8235;52.198;9.904;2023-03-15T08:38:59;100744.31;;;4.26;79.11
16255;BME280;8235;52.198;9.904;2023-03-15T08:41:26;100753.91;;;4.29;78.77
16255;BME280;8235;52.198;9.904;2023-03-15T08:43:52;100758.03;;;4.36;77.93
16255;BME280;8235;52.198;9.904;2023-03-15T08:46:20;100756.75;;;4.47;78.03
16255;BME280;8235;52.198;9.904;2023-03-15T08:48:47;100754.66;;;4.56;77.66
16255;BME280;8235;52.198;9.904;2023-03-15T08:51:13;100764.88;;;4.65;77.35
16255;BME280;8235;52.198;9.904;2023-03-15T08:53:39;100770.56;;;4.77;77.46
16255;BME280;8235;52.198;9.904;2023-03-15T08:56:06;100774.41;;;4.92;77.23
16255;BME280;8235;52.198;9.904;2023-03-15T08:58:33;100775.84;;;5.01;76.05
16255;BME280;8235;52.198;9.904;2023-03-15T09:01:00;100775.47;;;5.10;75.72
16255;BME280;8235;52.198;9.904;2023-03-15T09:03:28;100780.53;;;5.16;74.46
16255;BME280;8235;52.198;9.904;2023-03-15T09:05:57;100784.56;;;5.24;74.23
16255;BME280;8235;52.198;9.904;2023-03-15T09:08:24;100787.84;;;5.31;74.22
16255;BME280;8235;52.198;9.904;2023-03-15T09:10:53;100792.78;;;5.39;73.38
16255;BME280;8235;52.198;9.904;2023-03-15T09:13:19;100788.09;;;5.47;73.11
16255;BME280;8235;52.198;9.904;2023-03-15T09:15:48;100793.25;;;5.50;72.47
16255;BME280;8235;52.198;9.904;2023-03-15T09:18:15;100801.75;;;5.56;72.06
16255;BME280;8235;52.198;9.904;2023-03-15T09:20:42;100800.53;;;5.65;71.84
16255;BME280;8235;52.198;9.904;2023-03-15T09:23:09;100798.53;;;5.72;71.38
16255;BME280;8235;52.198;9.904;2023-03-15T09:25:36;100803.41;;;5.81;70.71
16255;BME280;8235;52.198;9.904;2023-03-15T09:28:03;100817.22;;;5.89;70.50
16255;BME280;8235;52.198;9.904;2023-03-15T09:30:29;100812.53;;;5.96;69.97
16255;BME280;8235;52.198;9.904;2023-03-15T09:32:56;100812.97;;;6.07;69.33
16255;BME280;8235;52.198;9.904;2023-03-15T09:35:22;100817.66;;;6.20;69.20
16255;BME280;8235;52.198;9.904;2023-03-15T09:37:50;100831.13;;;6.35;68.64
16255;BME280;8235;52.198;9.904;2023-03-15T09:40:19;100827.50;;;6.37;67.05
16255;BME280;8235;52.198;9.904;2023-03-15T09:42:54;100833.41;;;6.44;67.55
16255;BME280;8235;52.198;9.904;2023-03-15T09:45:26;100827.69;;;6.53;67.15
16255;BME280;8235;52.198;9.904;2023-03-15T09:47:59;100821.84;;;6.65;66.31
16255;BME280;8235;52.198;9.904;2023-03-15T09:50:31;100832.25;;;6.70;65.92
16255;BME280;8235;52.198;9.904;2023-03-15T09:53:03;100827.81;;;6.70;65.49
16255;BME280;8235;52.198;9.904;2023-03-15T09:55:40;100824.09;;;6.74;65.52
16255;BME280;8235;52.198;9.904;2023-03-15T09:58:10;100824.53;;;6.84;65.31
16255;BME280;8235;52.198;9.904;2023-03-15T10:00:42;100834.13;;;6.86;64.84
16255;BME280;8235;52.198;9.904;2023-03-15T10:03:15;100826.25;;;6.85;64.00
16255;BME280;8235;52.198;9.904;2023-03-15T10:05:46;100834.25;;;6.83;63.37
16255;BME280;8235;52.198;9.904;2023-03-15T10:08:16;100829.63;;;6.88;63.39
16255;BME280;8235;52.198;9.904;2023-03-15T10:10:48;100832.88;;;6.95;63.02
16255;BME280;8235;52.198;9.904;2023-03-15T10:13:41;100835.28;;;7.00;62.19
16255;BME280;8235;52.198;9.904;2023-03-15T10:16:25;100832.63;;;7.00;61.02
16255;BME280;8235;52.198;9.904;2023-03-15T10:19:01;100836.16;;;7.00;59.78
16255;BME280;8235;52.198;9.904;2023-03-15T10:21:37;100828.31;;;6.99;58.98
16255;BME280;8235;52.198;9.904;2023-03-15T10:24:15;100830.72;;;7.03;58.74
16255;BME280;8235;52.198;9.904;2023-03-15T10:26:43;100840.19;;;7.09;56.98
16255;BME280;8235;52.198;9.904;2023-03-15T10:29:13;100837.31;;;7.13;56.64
16255;BME280;8235;52.198;9.904;2023-03-15T10:31:43;100842.38;;;7.18;55.84
16255;BME280;8235;52.198;9.904;2023-03-15T10:34:12;100841.19;;;7.25;55.94
16255;BME280;8235;52.198;9.904;2023-03-15T10:36:44;100830.44;;;7.28;55.24
16255;BME280;8235;52.198;9.904;2023-03-15T10:39:12;100840.59;;;7.37;55.65
16255;BME280;8235;52.198;9.904;2023-03-15T10:41:41;100826.88;;;7.48;56.14
16255;BME280;8235;52.198;9.904;2023-03-15T10:44:12;100841.31;;;7.59;55.95
16255;BME280;8235;52.198;9.904;2023-03-15T10:46:39;100834.72;;;7.68;55.55
16255;BME280;8235;52.198;9.904;2023-03-15T10:49:10;100853.03;;;7.73;54.19
16255;BME280;8235;52.198;9.904;2023-03-15T10:51:39;100853.50;;;7.63;52.53
16255;BME280;8235;52.198;9.904;2023-03-15T10:54:14;100854.78;;;7.55;52.69
16255;BME280;8235;52.198;9.904;2023-03-15T10:56:45;100864.59;;;7.53;52.98
16255;BME280;8235;52.198;9.904;2023-03-15T10:59:17;100870.19;;;7.47;52.82
16255;BME280;8235;52.198;9.904;2023-03-15T11:01:46;100859.94;;;7.39;53.15
16255;BME280;8235;52.198;9.904;2023-03-15T11:04:16;100876.22;;;7.31;52.96
16255;BME280;8235;52.198;9.904;2023-03-15T11:06:45;100870.53;;;7.20;53.47
16255;BME280;8235;52.198;9.904;2023-03-15T11:09:15;100869.97;;;7.14;54.32
16255;BME280;8235;52.198;9.904;2023-03-15T11:12:00;100877.25;;;7.09;54.34
16255;BME280;8235;52.198;9.904;2023-03-15T11:14:32;100876.72;;;7.01;55.73
16255;BME280;8235;52.198;9.904;2023-03-15T11:16:59;100874.38;;;6.94;55.80
16255;BME280;8235;52.198;9.904;2023-03-15T11:19:27;100881.53;;;6.92;56.15
16255;BME280;8235;52.198;9.904;2023-03-15T11:21:57;100880.59;;;6.93;57.25
16255;BME280;8235;52.198;9.904;2023-03-15T11:24:28;100876.78;;;6.99;57.65
16255;BME280;8235;52.198;9.904;2023-03-15T11:26:57;100868.72;;;7.02;57.45
16255;BME280;8235;52.198;9.904;2023-03-15T11:29:26;100870.44;;;7.03;56.40
16255;BME280;8235;52.198;9.904;2023-03-15T11:31:57;100868.53;;;7.07;55.79
16255;BME280;8235;52.198;9.904;2023-03-15T11:34:36;100870.03;;;7.12;55.60
16255;BME280;8235;52.198;9.904;2023-03-15T11:37:10;100868.38;;;7.10;53.37
16255;BME280;8235;52.198;9.904;2023-03-15T11:39:43;100862.94;;;7.13;52.68
16255;BME280;8235;52.198;9.904;2023-03-15T11:42:17;100871.75;;;7.13;52.40
16255;BME280;8235;52.198;9.904;2023-03-15T11:44:46;100865.28;;;7.19;52.33
16255;BME280;8235;52.198;9.904;2023-03-15T11:47:22;100863.91;;;7.30;52.08
16255;BME280;8235;52.198;9.904;2023-03-15T11:49:52;100860.94;;;7.37;50.91
16255;BME280;8235;52.198;9.904;2023-03-15T11:52:21;100868.59;;;7.43;50.88
16255;BME280;8235;52.198;9.904;2023-03-15T11:54:51;100860.38;;;7.49;51.01
16255;BME280;8235;52.198;9.904;2023-03-15T11:57:38;100850.50;;;7.52;50.93
16255;BME280;8235;52.198;9.904;2023-03-15T12:03:24;100868.75;;;7.58;50.27
16255;BME280;8235;52.198;9.904;2023-03-15T12:05:51;100865.09;;;7.61;50.05
16255;BME280;8235;52.198;9.904;2023-03-15T12:08:39;100861.66;;;7.59;49.11
16255;BME280;8235;52.198;9.904;2023-03-15T12:11:11;100874.97;;;7.57;48.60
16255;BME280;8235;52.198;9.904;2023-03-15T12:13:50;100875.97;;;7.55;48.97
16255;BME280;8235;52.198;9.904;2023-03-15T12:16:19;100877.06;;;7.51;48.94
16255;BME280;8235;52.198;9.904;2023-03-15T12:18:47;100879.78;;;7.49;49.12
16255;BME280;8235;52.198;9.904;2023-03-15T12:21:17;100885.50;;;7.40;49.59
16255;BME280;8235;52.198;9.904;2023-03-15T12:23:57;100885.94;;;7.31;49.38
16255;BME280;8235;52.198;9.904;2023-03-15T12:26:39;100882.91;;;7.20;50.22
16255;BME280;8235;52.198;9.904;2023-03-15T12:29:12;100882.34;;;7.13;50.96
16255;BME280;8235;52.198;9.904;2023-03-15T12:31:57;100890.38;;;7.12;51.34
16255;BME280;8235;52.198;9.904;2023-03-15T12:34:35;100888.78;;;7.08;51.24
16255;BME280;8235;52.198;9.904;2023-03-15T12:37:05;100903.13;;;7.02;51.17
16255;BME280;8235;52.198;9.904;2023-03-15T12:39:42;100897.16;;;6.99;50.06
16255;BME280;8235;52.198;9.904;2023-03-15T12:45:42;100899.88;;;6.97;49.00
16255;BME280;8235;52.198;9.904;2023-03-15T12:48:23;100890.56;;;7.07;48.68
16255;BME280;8235;52.198;9.904;2023-03-15T12:51:02;100902.31;;;7.20;49.68
16255;BME280;8235;52.198;9.904;2023-03-15T12:53:44;100898.03;;;7.37;49.95
16255;BME280;8235;52.198;9.904;2023-03-15T12:56:33;100909.16;;;7.45;49.92
16255;BME280;8235;52.198;9.904;2023-03-15T12:59:19;100899.28;;;7.48;49.56
16255;BME280;8235;52.198;9.904;2023-03-15T13:01:48;100942.88;;;7.41;51.20
16255;BME280;8235;52.198;9.904;2023-03-15T13:04:16;100962.78;;;7.31;53.26
16255;BME280;8235;52.198;9.904;2023-03-15T13:06:50;100980.34;;;7.13;53.86
16255;BME280;8235;52.198;9.904;2023-03-15T13:09:26;100968.84;;;6.94;55.37
16255;BME280;8235;52.198;9.904;2023-03-15T13:12:04;100976.16;;;6.67;56.69
16255;BME280;8235;52.198;9.904;2023-03-15T13:14:41;101000.84;;;6.46;58.39
16255;BME280;8235;52.198;9.904;2023-03-15T13:17:20;101002.53;;;6.26;59.28
16255;BME280;8235;52.198;9.904;2023-03-15T13:19:53;100998.03;;;6.07;60.49
16255;BME280;8235;52.198;9.904;2023-03-15T13:22:26;101009.34;;;5.87;61.68
16255;BME280;8235;52.198;9.904;2023-03-15T13:25:02;101011.66;;;5.73;62.51
16255;BME280;8235;52.198;9.904;2023-03-15T13:27:45;101019.91;;;5.64;63.55